createdAt,value
2019-04-04T00:02:08.124Z,0
2019-04-04T00:05:14.130Z,0
2019-04-04T00:08:20.191Z,0
2019-04-04T00:11:26.253Z,0
2019-04-04T00:14:32.213Z,0
2019-04-04T00:17:38.274Z,0
2019-04-04T00:20:44.242Z,0
2019-04-04T00:23:50.296Z,0
2019-04-04T00:26:56.257Z,0
2019-04-04T00:30:02.429Z,0
2019-04-04T00:33:08.400Z,0
2019-04-04T00:36:14.440Z,0
2019-04-04T00:39:20.401Z,0
2019-04-04T00:42:26.279Z,0
2019-04-04T00:45:32.525Z,0
2019-04-04T00:48:38.485Z,0
2019-04-04T00:51:44.537Z,0
2019-04-04T00:54:50.508Z,0
2019-04-04T00:57:56.402Z,0
2019-04-04T01:01:02.428Z,0
2019-04-04T01:04:08.488Z,0
2019-04-04T01:07:14.449Z,0
2019-04-04T01:10:22.462Z,0
2019-04-04T01:13:30.573Z,0
2019-04-04T01:16:37.148Z,0
2019-04-04T01:19:43.218Z,0
2019-04-04T01:22:54.023Z,0
2019-04-04T01:26:05.898Z,0
2019-04-04T01:29:13.986Z,0
2019-04-04T01:32:20.563Z,0
2019-04-04T01:35:26.623Z,0
2019-04-04T01:38:35.553Z,0
2019-04-04T01:41:41.608Z,0
2019-04-04T01:44:47.573Z,0
2019-04-04T01:47:53.635Z,0
2019-04-04T01:50:59.507Z,0
2019-04-04T01:54:05.451Z,0
2019-04-04T01:57:11.821Z,0
2019-04-04T02:00:18.806Z,0
2019-04-04T02:03:26.300Z,0
2019-04-04T02:06:32.262Z,0
2019-04-04T02:09:38.224Z,0
2019-04-04T02:12:46.975Z,0
2019-04-04T02:15:52.908Z,0
2019-04-04T02:18:58.972Z,0
2019-04-04T02:22:04.844Z,0
2019-04-04T02:25:10.885Z,0
2019-04-04T02:28:16.761Z,0
2019-04-04T02:31:24.651Z,0
2019-04-04T02:34:30.526Z,0
2019-04-04T02:37:36.472Z,0
2019-04-04T02:40:45.105Z,0
2019-04-04T02:43:51.149Z,0
2019-04-04T02:46:57.119Z,0
2019-04-04T02:50:04.767Z,0
2019-04-04T02:53:10.677Z,0
2019-04-04T02:56:23.186Z,0
2019-04-04T02:59:29.057Z,0
2019-04-04T03:02:38.889Z,191.5
2019-04-04T03:05:44.849Z,237.6
2019-04-04T03:08:57.259Z,247.7
2019-04-04T03:12:03.302Z,250.6
2019-04-04T03:15:12.719Z,252
2019-04-04T03:18:18.829Z,253.4
2019-04-04T03:21:26.479Z,254.9
2019-04-04T03:24:32.681Z,256.3
2019-04-04T03:27:48.118Z,254.9
2019-04-04T03:31:06.323Z,254.9
2019-04-04T03:34:15.845Z,256.3
2019-04-04T03:37:21.880Z,257.8
2019-04-04T03:40:28.942Z,257.8
2019-04-04T03:43:34.874Z,256.3
2019-04-04T03:46:42.061Z,256.3
2019-04-04T03:49:48.128Z,256.3
2019-04-04T03:52:54.294Z,256.3
2019-04-04T03:56:03.990Z,256.3
2019-04-04T03:59:09.998Z,256.3
2019-04-04T04:02:20.563Z,257.8
2019-04-04T04:05:26.632Z,256.3
2019-04-04T04:08:40.369Z,257.8
2019-04-04T04:11:46.535Z,257.8
2019-04-04T04:14:57.766Z,256.3
2019-04-04T04:18:03.647Z,256.3
2019-04-04T04:21:13.780Z,257.8
2019-04-04T04:24:19.690Z,257.8
2019-04-04T04:27:25.647Z,257.8
2019-04-04T04:30:31.612Z,257.8
2019-04-04T04:33:37.677Z,260.6
2019-04-04T04:36:47.532Z,262.1
2019-04-04T04:39:54.110Z,262.1
2019-04-04T04:43:03.483Z,262.1
2019-04-04T04:46:09.535Z,262.1
2019-04-04T04:49:15.663Z,266.4
2019-04-04T04:52:21.724Z,266.4
2019-04-04T04:55:30.648Z,269.3
2019-04-04T04:58:36.612Z,269.3
2019-04-04T05:01:50.048Z,269.3
2019-04-04T05:05:00.735Z,267.8
2019-04-04T05:08:09.610Z,270.7
2019-04-04T05:11:22.216Z,277.9
2019-04-04T05:14:31.590Z,270.7
2019-04-04T05:17:37.565Z,270.7
2019-04-04T05:20:46.753Z,270.7
2019-04-04T05:23:52.724Z,273.6
2019-04-04T05:26:58.726Z,273.6
2019-04-04T05:30:07.968Z,275
2019-04-04T05:33:14.221Z,272.2
2019-04-04T05:36:20.191Z,273.6
2019-04-04T05:39:26.385Z,276.5
2019-04-04T05:42:36.188Z,275
2019-04-04T05:45:45.938Z,276.5
2019-04-04T05:48:51.862Z,275
2019-04-04T05:51:58.056Z,272.2
2019-04-04T05:55:04.102Z,273.6
2019-04-04T05:58:13.627Z,277.9
2019-04-04T06:01:19.994Z,285.1
2019-04-04T06:04:26.066Z,290.9
2019-04-04T06:07:32.273Z,293.8
2019-04-04T06:10:42.421Z,299.5
2019-04-04T06:13:48.288Z,283.7
2019-04-04T06:16:54.255Z,279.4
2019-04-04T06:20:00.208Z,279.4
2019-04-04T06:23:06.260Z,279.4
2019-04-04T06:26:12.936Z,280.8
2019-04-04T06:29:20.492Z,279.4
2019-04-04T06:32:26.501Z,280.8
2019-04-04T06:35:35.938Z,295.2
2019-04-04T06:38:52.191Z,280.8
2019-04-04T06:42:03.978Z,282.2
2019-04-04T06:45:10.098Z,282.2
2019-04-04T06:48:19.959Z,298.1
2019-04-04T06:51:25.856Z,301
2019-04-04T06:54:31.841Z,303.8
2019-04-04T06:57:40.302Z,299.5
2019-04-04T07:00:51.792Z,302.4
2019-04-04T07:04:02.148Z,302.4
2019-04-04T07:07:08.113Z,302.4
2019-04-04T07:10:20.801Z,301
2019-04-04T07:13:44.916Z,288
2019-04-04T07:16:51.578Z,282.2
2019-04-04T07:19:57.881Z,279.4
2019-04-04T07:23:03.960Z,280.8
2019-04-04T07:26:16.726Z,280.8
2019-04-04T07:29:26.702Z,280.8
2019-04-04T07:32:32.656Z,280.8
2019-04-04T07:35:40.565Z,279.4
2019-04-04T07:38:46.622Z,279.4
2019-04-04T07:41:52.499Z,279.4
2019-04-04T07:45:01.507Z,277.9
2019-04-04T07:48:07.474Z,277.9
2019-04-04T07:51:16.490Z,276.5
2019-04-04T07:54:22.462Z,276.5
2019-04-04T07:57:31.223Z,276.5
2019-04-04T08:00:37.236Z,276.5
2019-04-04T08:03:43.305Z,275
2019-04-04T08:06:49.236Z,276.5
2019-04-04T08:09:55.170Z,276.5
2019-04-04T08:13:01.372Z,275
2019-04-04T08:16:07.346Z,275
2019-04-04T08:19:13.416Z,273.6
2019-04-04T08:22:23.125Z,273.6
2019-04-04T08:25:29.235Z,276.5
2019-04-04T08:28:35.157Z,279.4
2019-04-04T08:31:41.149Z,280.8
2019-04-04T08:34:47.417Z,280.8
2019-04-04T08:38:10.697Z,280.8
2019-04-04T08:41:16.639Z,280.8
2019-04-04T08:44:22.605Z,280.8
2019-04-04T08:47:28.679Z,280.8
2019-04-04T08:50:34.674Z,280.8
2019-04-04T08:53:43.354Z,280.8
2019-04-04T08:56:49.442Z,280.8
2019-04-04T08:59:55.475Z,282.2
2019-04-04T09:03:01.442Z,282.2
2019-04-04T09:06:07.318Z,283.7
2019-04-04T09:09:13.266Z,280.8
2019-04-04T09:12:19.165Z,282.2
2019-04-04T09:15:25.183Z,280.8
2019-04-04T09:18:32.005Z,280.8
2019-04-04T09:21:40.976Z,280.8
2019-04-04T09:24:46.944Z,285.1
2019-04-04T09:27:52.829Z,285.1
2019-04-04T09:30:58.866Z,286.6
2019-04-04T09:34:04.740Z,285.1
2019-04-04T09:37:14.585Z,285.1
2019-04-04T09:40:20.641Z,285.1
2019-04-04T09:43:26.592Z,283.7
2019-04-04T09:46:39.620Z,280.8
2019-04-04T09:49:45.685Z,279.4
2019-04-04T09:52:51.791Z,276.5
2019-04-04T09:55:58.109Z,275
2019-04-04T09:59:04.077Z,276.5
2019-04-04T10:02:10.140Z,276.5
2019-04-04T10:05:16.471Z,277.9
2019-04-04T10:08:22.958Z,277.9
2019-04-04T10:11:28.939Z,276.5
2019-04-04T10:14:34.882Z,280.8
2019-04-04T10:17:40.904Z,280.8
2019-04-04T10:20:46.867Z,279.4
2019-04-04T10:23:52.894Z,279.4
2019-04-04T10:26:58.776Z,279.4
2019-04-04T10:30:08.188Z,279.4
2019-04-04T10:33:14.248Z,279.4
2019-04-04T10:36:20.210Z,277.9
2019-04-04T10:39:35.284Z,279.4
2019-04-04T10:42:41.313Z,272.2
2019-04-04T10:45:47.245Z,272.2
2019-04-04T10:48:53.265Z,272.2
2019-04-04T10:52:00.160Z,273.6
2019-04-04T10:55:06.309Z,273.6
2019-04-04T10:58:12.275Z,272.2
2019-04-04T11:01:18.328Z,270.7
2019-04-04T11:04:24.375Z,270.7
2019-04-04T11:07:30.362Z,273.6
2019-04-04T11:10:36.229Z,279.4
2019-04-04T11:13:42.246Z,270.7
2019-04-04T11:16:48.226Z,273.6
2019-04-04T11:19:54.186Z,270.7
2019-04-04T11:23:00.569Z,270.7
2019-04-04T11:26:07.362Z,270.7
2019-04-04T11:29:13.300Z,276.5
2019-04-04T11:32:19.329Z,277.9
2019-04-04T11:35:25.214Z,277.9
2019-04-04T11:38:31.173Z,277.9
2019-04-04T11:41:37.106Z,276.5
2019-04-04T11:44:45.779Z,276.5
2019-04-04T11:47:51.815Z,277.9
2019-04-04T11:50:57.710Z,277.9
2019-04-04T11:54:03.635Z,276.5
2019-04-04T11:57:09.626Z,277.9
2019-04-04T12:00:15.558Z,276.5
2019-04-04T12:03:21.611Z,276.5
2019-04-04T12:06:27.576Z,276.5
2019-04-04T12:09:33.546Z,276.5
2019-04-04T12:12:39.491Z,276.5
2019-04-04T12:15:45.472Z,276.5
2019-04-04T12:18:51.641Z,267.8
2019-04-04T12:21:57.806Z,266.4
2019-04-04T12:25:03.724Z,265
2019-04-04T12:28:09.888Z,270.7
2019-04-04T12:31:15.763Z,267.8
2019-04-04T12:34:21.777Z,273.6
2019-04-04T12:37:27.802Z,265
2019-04-04T12:40:33.689Z,265
2019-04-04T12:43:39.610Z,265
2019-04-04T12:46:45.887Z,266.4
2019-04-04T12:49:52.154Z,263.5
2019-04-04T12:52:59.150Z,263.5
2019-04-04T12:56:05.510Z,265
2019-04-04T12:59:11.641Z,265
2019-04-04T13:02:17.684Z,266.4
2019-04-04T13:05:23.979Z,267.8
2019-04-04T13:08:32.932Z,269.3
2019-04-04T13:11:38.888Z,266.4
2019-04-04T13:14:44.837Z,266.4
2019-04-04T13:17:50.724Z,266.4
2019-04-04T13:20:56.812Z,266.4
2019-04-04T13:24:02.798Z,266.4
2019-04-04T13:27:08.799Z,275
2019-04-04T13:30:14.789Z,275
2019-04-04T13:33:24.030Z,273.6
2019-04-04T13:36:30.259Z,275
2019-04-04T13:39:36.290Z,269.3
2019-04-04T13:42:43.587Z,269.3
2019-04-04T13:45:49.768Z,269.3
2019-04-04T13:48:55.701Z,272.2
2019-04-04T13:52:01.701Z,272.2
2019-04-04T13:55:09.296Z,272.2
2019-04-04T13:58:21.747Z,270.7
2019-04-04T14:01:29.694Z,269.3
2019-04-04T14:04:36.176Z,270.7
2019-04-04T14:07:45.511Z,267.8
2019-04-04T14:11:01.173Z,265
2019-04-04T14:14:07.082Z,267.8
2019-04-04T14:17:13.533Z,270.7
2019-04-04T14:20:19.411Z,269.3
2019-04-04T14:23:25.491Z,267.8
2019-04-04T14:26:34.627Z,270.7
2019-04-04T14:29:41.121Z,269.3
2019-04-04T14:32:47.377Z,269.3
2019-04-04T14:35:53.500Z,267.8
2019-04-04T14:39:00.446Z,269.3
2019-04-04T14:42:06.477Z,267.8
2019-04-04T14:45:12.436Z,263.5
2019-04-04T14:48:18.398Z,267.8
2019-04-04T14:51:24.440Z,266.4
2019-04-04T14:54:32.858Z,267.8
2019-04-04T14:57:38.938Z,265
2019-04-04T15:00:45.050Z,266.4
2019-04-04T15:03:51.062Z,266.4
2019-04-04T15:06:57.027Z,265
2019-04-04T15:10:03.084Z,266.4
2019-04-04T15:13:09.054Z,265
2019-04-04T15:16:15.107Z,266.4
2019-04-04T15:19:21.074Z,265
2019-04-04T15:22:27.043Z,265
2019-04-04T15:25:36.157Z,265
2019-04-04T15:28:42.085Z,266.4
2019-04-04T15:31:48.185Z,267.8
2019-04-04T15:34:54.068Z,265
2019-04-04T15:37:59.951Z,265
2019-04-04T15:41:08.832Z,265
2019-04-04T15:44:14.793Z,263.5
2019-04-04T15:47:20.850Z,265
2019-04-04T15:50:26.811Z,265
2019-04-04T15:53:32.765Z,265
2019-04-04T15:56:38.657Z,265
2019-04-04T15:59:44.689Z,265
2019-04-04T16:02:50.869Z,265
2019-04-04T16:05:56.758Z,263.5
2019-04-04T16:09:02.770Z,263.5
2019-04-04T16:12:08.734Z,263.5
2019-04-04T16:15:14.634Z,262.1
2019-04-04T16:18:20.595Z,262.1
2019-04-04T16:21:26.609Z,262.1
2019-04-04T16:24:32.497Z,262.1
2019-04-04T16:27:38.544Z,262.1
2019-04-04T16:30:44.494Z,262.1
2019-04-04T16:33:50.384Z,260.6
2019-04-04T16:36:56.594Z,260.6
2019-04-04T16:40:12.551Z,260.6
2019-04-04T16:43:18.465Z,259.2
2019-04-04T16:46:24.351Z,260.6
2019-04-04T16:49:30.287Z,260.6
2019-04-04T16:52:36.330Z,260.6
2019-04-04T16:55:42.308Z,259.2
2019-04-04T16:58:48.372Z,260.6
2019-04-04T17:01:54.254Z,260.6
2019-04-04T17:05:00.285Z,259.2
2019-04-04T17:08:06.245Z,259.2
2019-04-04T17:11:12.129Z,259.2
2019-04-04T17:14:18.177Z,259.2
2019-04-04T17:17:27.046Z,260.6
2019-04-04T17:20:33.035Z,259.2
2019-04-04T17:23:39.015Z,259.2
2019-04-04T17:26:44.974Z,260.6
2019-04-04T17:29:52.294Z,260.6
2019-04-04T17:33:00.539Z,0.8
2019-04-04T17:36:08.984Z,0
2019-04-04T17:39:16.115Z,0
2019-04-04T17:42:37.205Z,0
2019-04-04T17:45:43.905Z,0
2019-04-04T17:48:51.772Z,0
2019-04-04T17:51:58.946Z,0
2019-04-04T17:55:05.648Z,0
2019-04-04T17:58:13.791Z,0
2019-04-04T18:01:20.638Z,0
2019-04-04T18:04:26.583Z,0
2019-04-04T18:07:32.601Z,0
2019-04-04T18:10:38.462Z,0
2019-04-04T18:13:44.478Z,0
2019-04-04T18:16:50.440Z,0
2019-04-04T18:19:56.407Z,0
2019-04-04T18:23:02.364Z,0
2019-04-04T18:26:08.378Z,0
2019-04-04T18:29:14.227Z,0
2019-04-04T18:32:20.258Z,0
2019-04-04T18:35:28.173Z,0
2019-04-04T18:38:35.416Z,0
2019-04-04T18:41:41.779Z,0
2019-04-04T18:44:47.822Z,0
2019-04-04T18:47:53.694Z,0
2019-04-04T18:51:02.668Z,0
2019-04-04T18:54:08.620Z,0
2019-04-04T18:57:16.323Z,0
2019-04-04T19:00:25.108Z,0
2019-04-04T19:03:32.744Z,0
2019-04-04T19:06:38.701Z,0
2019-04-04T19:09:44.763Z,0
2019-04-04T19:12:50.910Z,0
2019-04-04T19:16:10.107Z,0
2019-04-04T19:19:16.058Z,0
2019-04-04T19:22:22.102Z,0
2019-04-04T19:25:28.080Z,0
2019-04-04T19:28:34.092Z,0
2019-04-04T19:31:40.103Z,0
2019-04-04T19:34:46.795Z,0
2019-04-04T19:38:03.132Z,0
2019-04-04T19:41:09.004Z,0
2019-04-04T19:44:15.126Z,0
2019-04-04T19:47:21.090Z,0
2019-04-04T19:50:27.001Z,0
2019-04-04T19:53:32.996Z,0
2019-04-04T19:56:38.953Z,0
2019-04-04T19:59:44.914Z,0
2019-04-04T20:02:50.875Z,0
2019-04-04T20:05:56.874Z,0
2019-04-04T20:09:02.747Z,0
2019-04-04T20:12:08.764Z,0
2019-04-04T20:15:14.826Z,0
2019-04-04T20:18:20.766Z,0
2019-04-04T20:21:26.730Z,0
2019-04-04T20:24:32.692Z,0
2019-04-04T20:27:38.563Z,0
2019-04-04T20:30:57.718Z,0
2019-04-04T20:34:08.545Z,0
2019-04-04T20:37:14.519Z,0
2019-04-04T20:40:20.519Z,0
2019-04-04T20:43:29.727Z,0
2019-04-04T20:46:48.626Z,0
2019-04-04T20:49:54.491Z,0
2019-04-04T20:53:00.436Z,0
2019-04-04T20:56:06.517Z,0
2019-04-04T20:59:12.450Z,0
2019-04-04T21:02:21.392Z,0
2019-04-04T21:05:27.341Z,0
2019-04-04T21:08:33.296Z,0
2019-04-04T21:11:39.259Z,0
2019-04-04T21:14:45.220Z,0
2019-04-04T21:17:51.283Z,0
2019-04-04T21:20:57.445Z,0
2019-04-04T21:24:03.402Z,0
2019-04-04T21:27:09.364Z,0
2019-04-04T21:30:15.533Z,0
2019-04-04T21:33:21.487Z,0
2019-04-04T21:36:27.453Z,0
2019-04-04T21:39:33.414Z,0
2019-04-04T21:42:39.371Z,0
2019-04-04T21:45:45.247Z,0
2019-04-04T21:48:51.268Z,0
2019-04-04T21:51:57.247Z,0
2019-04-04T21:55:03.187Z,0
2019-04-04T21:58:09.168Z,0
2019-04-04T22:01:15.041Z,0
2019-04-04T22:04:20.988Z,0
2019-04-04T22:07:26.999Z,0
2019-04-04T22:10:33.021Z,0
2019-04-04T22:13:39.070Z,0
2019-04-04T22:16:45.131Z,0
2019-04-04T22:19:51.007Z,0
2019-04-04T22:22:57.040Z,0
2019-04-04T22:26:03.019Z,0
2019-04-04T22:29:08.987Z,0
2019-04-04T22:32:14.924Z,0
2019-04-04T22:35:20.904Z,0
2019-04-04T22:38:26.968Z,0
2019-04-04T22:41:35.886Z,0
2019-04-04T22:44:41.951Z,0
2019-04-04T22:47:47.821Z,0
2019-04-04T22:50:53.772Z,0
2019-04-04T22:54:02.498Z,0
2019-04-04T22:57:08.375Z,0
2019-04-04T23:00:14.318Z,0
2019-04-04T23:03:20.369Z,0
2019-04-04T23:06:26.343Z,0
2019-04-04T23:09:32.392Z,0
2019-04-04T23:12:38.264Z,0
2019-04-04T23:15:44.323Z,0
2019-04-04T23:18:50.459Z,0
2019-04-04T23:21:56.437Z,0
2019-04-04T23:25:02.498Z,0
2019-04-04T23:28:08.559Z,0
2019-04-04T23:31:14.521Z,0
2019-04-04T23:34:20.480Z,0
2019-04-04T23:37:26.438Z,0
2019-04-04T23:40:32.399Z,0
2019-04-04T23:43:38.284Z,0
2019-04-04T23:46:44.217Z,0
2019-04-04T23:49:50.290Z,0
2019-04-04T23:52:56.250Z,0
2019-04-04T23:56:02.354Z,0
2019-04-04T23:59:08.227Z,0
